createdAt,value
2022-08-08T00:01:16.991Z,23.26
2022-08-08T00:03:56.025Z,23.20
2022-08-08T00:06:39.290Z,23.14
2022-08-08T00:09:15.938Z,23.13
2022-08-08T00:12:09.314Z,23.11
2022-08-08T00:14:59.846Z,23.04
2022-08-08T00:18:02.200Z,22.97
2022-08-08T00:20:37.394Z,22.92
2022-08-08T00:23:09.286Z,22.93
2022-08-08T00:25:46.616Z,22.88
2022-08-08T00:28:35.211Z,22.91
2022-08-08T00:32:21.292Z,22.85
2022-08-08T00:34:20.485Z,22.82
2022-08-08T00:37:03.588Z,22.70
2022-08-08T00:41:06.864Z,22.57
2022-08-08T00:43:06.030Z,22.53
2022-08-08T00:46:02.226Z,22.57
2022-08-08T00:49:03.548Z,22.50
2022-08-08T00:52:05.494Z,22.42
2022-08-08T00:55:17.920Z,22.37
2022-08-08T00:58:30.682Z,22.31
2022-08-08T01:01:15.916Z,22.20
2022-08-08T01:04:36.788Z,22.11
2022-08-08T01:07:57.449Z,21.98
2022-08-08T01:11:09.715Z,21.92
2022-08-08T01:14:13.643Z,21.87
2022-08-08T01:17:52.081Z,21.82
2022-08-08T01:20:44.297Z,21.79
2022-08-08T01:24:05.509Z,21.83
2022-08-08T01:26:51.990Z,21.92
2022-08-08T01:30:03.317Z,21.90
2022-08-08T01:33:24.009Z,21.81
2022-08-08T01:36:37.728Z,21.74
2022-08-08T01:39:23.380Z,21.65
2022-08-08T01:41:59.027Z,21.58
2022-08-08T01:44:43.702Z,21.59
2022-08-08T01:48:03.653Z,21.56
2022-08-08T01:50:35.841Z,21.54
2022-08-08T01:54:33.535Z,21.60
2022-08-08T01:56:28.503Z,21.55
2022-08-08T01:59:19.990Z,21.52
2022-08-08T02:02:09.320Z,21.52
2022-08-08T02:04:50.948Z,21.52
2022-08-08T02:07:26.506Z,21.53
2022-08-08T02:10:37.168Z,21.48
2022-08-08T02:13:53.924Z,21.48
2022-08-08T02:16:20.927Z,21.38
2022-08-08T02:18:58.733Z,21.30
2022-08-08T02:21:50.716Z,21.30
2022-08-08T02:24:22.861Z,21.31
2022-08-08T02:27:01.251Z,21.28
2022-08-08T02:29:53.150Z,21.29
2022-08-08T02:33:00.431Z,21.33
2022-08-08T02:36:04.598Z,21.32
2022-08-08T02:38:48.969Z,21.31
2022-08-08T02:42:04.152Z,21.29
2022-08-08T02:45:09.631Z,21.29
2022-08-08T02:48:17.162Z,21.32
2022-08-08T02:51:46.426Z,21.37
2022-08-08T02:54:54.351Z,21.35
2022-08-08T02:58:10.447Z,21.32
2022-08-08T03:01:15.351Z,21.29
2022-08-08T03:05:04.547Z,21.26
2022-08-08T03:07:57.951Z,21.30
2022-08-08T03:10:54.245Z,21.37
2022-08-08T03:16:00.295Z,21.36
2022-08-08T03:16:55.143Z,21.37
2022-08-08T03:20:04.576Z,21.32
2022-08-08T03:22:46.567Z,21.33
2022-08-08T03:25:18.660Z,21.25
2022-08-08T03:27:56.432Z,21.20
2022-08-08T03:30:25.776Z,21.18
2022-08-08T03:33:55.355Z,21.17
2022-08-08T03:36:00.985Z,21.18
2022-08-08T03:38:56.393Z,21.17
2022-08-08T03:42:11.392Z,21.16
2022-08-08T03:44:10.571Z,21.20
2022-08-08T03:46:50.593Z,21.24
2022-08-08T03:49:58.928Z,21.33
2022-08-08T03:52:12.808Z,21.33
2022-08-08T03:55:01.966Z,21.32
2022-08-08T03:58:34.445Z,21.35
2022-08-08T04:00:22.233Z,21.40
2022-08-08T04:03:00.958Z,21.41
2022-08-08T04:05:30.974Z,21.54
2022-08-08T04:08:01.414Z,21.63
2022-08-08T04:10:32.797Z,21.67
2022-08-08T04:13:03.723Z,21.68
2022-08-08T04:16:04.142Z,21.74
2022-08-08T04:18:41.925Z,21.90
2022-08-08T04:21:13.555Z,22.02
2022-08-08T04:24:11.666Z,22.20
2022-08-08T04:26:56.858Z,22.32
2022-08-08T04:29:26.061Z,22.41
2022-08-08T04:31:59.292Z,22.36
2022-08-08T04:34:32.003Z,22.33
2022-08-08T04:37:03.904Z,22.43
2022-08-08T04:40:03.959Z,22.76
2022-08-08T04:42:22.030Z,23.00
2022-08-08T04:44:52.796Z,23.12
2022-08-08T04:47:21.084Z,23.30
2022-08-08T04:50:01.638Z,23.42
2022-08-08T04:52:33.804Z,23.49
2022-08-08T04:55:02.580Z,23.54
2022-08-08T04:57:34.517Z,23.59
2022-08-08T05:00:02.866Z,23.64
2022-08-08T05:02:31.689Z,23.70
2022-08-08T05:05:00.687Z,23.68
2022-08-08T05:07:37.810Z,23.74
2022-08-08T05:10:12.940Z,23.75
2022-08-08T05:13:00.292Z,23.93
2022-08-08T05:16:48.355Z,23.97
2022-08-08T05:18:18.736Z,23.82
2022-08-08T05:20:52.117Z,23.95
2022-08-08T05:23:21.704Z,24.03
2022-08-08T05:25:50.136Z,24.14
2022-08-08T05:28:55.837Z,24.34
2022-08-08T05:31:08.813Z,24.59
2022-08-08T05:33:56.213Z,24.66
2022-08-08T05:36:27.947Z,24.82
2022-08-08T05:38:59.406Z,24.88
2022-08-08T05:41:27.883Z,25.15
2022-08-08T05:44:13.077Z,25.43
2022-08-08T05:46:43.100Z,25.84
2022-08-08T05:49:17.664Z,25.96
2022-08-08T05:51:49.653Z,26.11
2022-08-08T05:54:28.803Z,26.20
2022-08-08T05:57:59.519Z,26.31
2022-08-08T06:00:23.373Z,26.45
2022-08-08T06:03:17.717Z,26.39
2022-08-08T06:05:56.583Z,26.22
2022-08-08T06:08:34.957Z,26.10
2022-08-08T06:11:05.049Z,26.00
2022-08-08T06:13:36.080Z,25.88
2022-08-08T06:16:16.783Z,25.87
2022-08-08T06:18:50.225Z,25.95
2022-08-08T06:21:32.541Z,26.00
2022-08-08T06:24:22.884Z,26.06
2022-08-08T06:27:04.246Z,26.14
2022-08-08T06:29:49.497Z,26.16
2022-08-08T06:32:32.838Z,26.22
2022-08-08T06:36:01.053Z,26.24
2022-08-08T06:37:59.274Z,26.30
2022-08-08T06:40:32.156Z,26.40
2022-08-08T06:43:05.701Z,26.40
2022-08-08T06:45:36.516Z,26.55
2022-08-08T06:48:08.606Z,26.65
2022-08-08T06:50:39.533Z,26.65
2022-08-08T06:53:14.105Z,26.68
2022-08-08T06:56:01.920Z,26.73
2022-08-08T06:58:33.245Z,26.71
2022-08-08T07:01:52.362Z,26.74
2022-08-08T07:04:40.188Z,26.82
2022-08-08T07:06:52.525Z,26.84
2022-08-08T07:09:22.087Z,26.96
2022-08-08T07:11:59.198Z,27.00
2022-08-08T07:14:35.932Z,27.00
2022-08-08T07:17:09.588Z,27.11
2022-08-08T07:19:59.711Z,27.27
2022-08-08T07:22:39.603Z,27.39
2022-08-08T07:25:11.042Z,27.52
2022-08-08T07:28:02.231Z,27.65
2022-08-08T07:30:36.141Z,27.97
2022-08-08T07:33:05.646Z,28.03
2022-08-08T07:35:40.544Z,28.29
2022-08-08T07:38:20.643Z,28.39
2022-08-08T07:40:50.782Z,28.44
2022-08-08T07:43:23.193Z,28.43
2022-08-08T07:46:23.503Z,28.60
2022-08-08T07:48:53.712Z,28.64
2022-08-08T07:51:44.632Z,28.44
2022-08-08T07:54:27.050Z,28.65
2022-08-08T07:57:04.301Z,28.71
2022-08-08T07:59:48.998Z,28.87
2022-08-08T08:02:33.553Z,28.94
2022-08-08T08:05:15.135Z,29.01
2022-08-08T08:07:53.049Z,29.13
2022-08-08T08:10:30.176Z,29.28
2022-08-08T08:13:25.790Z,29.45
2022-08-08T08:16:11.468Z,29.55
2022-08-08T08:18:55.712Z,29.71
2022-08-08T08:21:44.324Z,29.79
2022-08-08T08:24:19.004Z,29.68
2022-08-08T08:26:52.691Z,29.83
2022-08-08T08:29:24.368Z,29.89
2022-08-08T08:31:58.396Z,29.96
2022-08-08T08:34:32.266Z,29.99
2022-08-08T08:37:08.169Z,29.97
2022-08-08T08:39:59.851Z,30.15
2022-08-08T08:42:29.392Z,30.23
2022-08-08T08:45:16.466Z,30.34
2022-08-08T08:47:54.713Z,30.48
2022-08-08T08:50:33.799Z,30.59
2022-08-08T08:53:28.370Z,30.18
2022-08-08T08:55:56.041Z,30.32
2022-08-08T08:58:34.007Z,30.39
2022-08-08T09:01:08.290Z,30.75
2022-08-08T09:03:46.831Z,30.79
2022-08-08T09:06:28.252Z,31.01
2022-08-08T09:09:04.410Z,31.25
2022-08-08T09:11:47.776Z,31.30
2022-08-08T09:14:26.450Z,31.52
2022-08-08T09:16:57.057Z,31.62
2022-08-08T09:21:56.667Z,31.69
2022-08-08T09:22:25.991Z,31.87
2022-08-08T09:24:58.480Z,31.98
2022-08-08T09:27:56.495Z,32.11
2022-08-08T09:30:20.168Z,32.33
2022-08-08T09:33:13.147Z,32.49
2022-08-08T09:35:49.955Z,32.69
2022-08-08T09:38:33.622Z,32.30
2022-08-08T09:41:06.775Z,32.19
2022-08-08T09:44:06.523Z,32.28
2022-08-08T09:46:38.724Z,32.23
2022-08-08T09:49:40.929Z,32.09
2022-08-08T09:52:06.553Z,32.06
2022-08-08T09:54:44.149Z,32.05
2022-08-08T09:57:19.012Z,32.34
2022-08-08T10:00:28.887Z,32.35
2022-08-08T10:02:45.117Z,31.85
2022-08-08T10:05:22.694Z,32.19
2022-08-08T10:07:59.730Z,32.54
2022-08-08T10:10:31.821Z,32.60
2022-08-08T10:13:13.959Z,32.77
2022-08-08T10:16:00.240Z,32.86
2022-08-08T10:18:30.855Z,32.83
2022-08-08T10:21:22.449Z,32.56
2022-08-08T10:23:58.314Z,32.65
2022-08-08T10:26:58.564Z,32.73
2022-08-08T10:29:28.229Z,32.53
2022-08-08T10:32:27.489Z,32.72
2022-08-08T10:35:01.377Z,32.96
2022-08-08T10:37:31.822Z,33.39
2022-08-08T10:40:16.883Z,33.38
2022-08-08T10:42:46.263Z,33.09
2022-08-08T10:45:16.800Z,32.66
2022-08-08T10:47:55.596Z,32.51
2022-08-08T10:50:33.412Z,32.76
2022-08-08T10:53:07.744Z,32.88
2022-08-08T10:55:45.695Z,32.90
2022-08-08T10:58:15.590Z,33.33
2022-08-08T11:00:48.557Z,33.57
2022-08-08T11:03:36.315Z,33.65
2022-08-08T11:06:12.603Z,33.37
2022-08-08T11:08:46.262Z,33.68
2022-08-08T11:11:59.994Z,34.14
2022-08-08T11:14:12.430Z,34.54
2022-08-08T11:16:47.137Z,34.37
2022-08-08T11:19:18.158Z,33.95
2022-08-08T11:21:54.270Z,33.95
2022-08-08T11:24:26.850Z,34.15
2022-08-08T11:26:59.180Z,33.94
2022-08-08T11:29:50.730Z,33.76
2022-08-08T11:32:22.252Z,33.42
2022-08-08T11:35:23.515Z,33.25
2022-08-08T11:38:35.828Z,33.22
2022-08-08T11:40:46.399Z,33.21
2022-08-08T11:43:21.691Z,33.41
2022-08-08T11:46:09.949Z,33.53
2022-08-08T11:48:44.966Z,33.61
2022-08-08T11:51:38.113Z,33.07
2022-08-08T11:54:09.707Z,32.93
2022-08-08T11:56:55.958Z,33.04
2022-08-08T11:59:57.667Z,33.05
2022-08-08T12:02:32.222Z,33.10
2022-08-08T12:05:06.793Z,33.44
2022-08-08T12:07:49.719Z,33.56
2022-08-08T12:10:21.871Z,33.64
2022-08-08T12:12:54.668Z,33.92
2022-08-08T12:15:28.453Z,33.89
2022-08-08T12:17:56.728Z,33.84
2022-08-08T12:20:25.816Z,33.99
2022-08-08T12:22:57.110Z,33.80
2022-08-08T12:25:31.177Z,33.35
2022-08-08T12:28:15.503Z,32.98
2022-08-08T12:30:48.202Z,32.66
2022-08-08T12:33:20.229Z,32.61
2022-08-08T12:35:52.934Z,32.89
2022-08-08T12:38:30.446Z,33.15
2022-08-08T12:41:05.766Z,33.16
2022-08-08T12:44:00.533Z,33.40
2022-08-08T12:46:29.726Z,33.52
2022-08-08T12:49:21.971Z,33.40
2022-08-08T12:51:59.221Z,33.21
2022-08-08T12:54:33.263Z,32.98
2022-08-08T12:57:17.163Z,32.84
2022-08-08T13:00:05.365Z,32.94
2022-08-08T13:02:51.811Z,33.07
2022-08-08T13:05:27.033Z,33.25
2022-08-08T13:08:20.600Z,33.35
2022-08-08T13:10:56.912Z,33.44
2022-08-08T13:13:34.744Z,33.66
2022-08-08T13:16:18.917Z,33.86
2022-08-08T13:18:58.299Z,33.89
2022-08-08T13:21:48.729Z,33.95
2022-08-08T13:24:39.519Z,33.67
2022-08-08T13:27:13.670Z,33.48
2022-08-08T13:29:51.289Z,33.38
2022-08-08T13:32:23.558Z,33.47
2022-08-08T13:34:56.583Z,33.59
2022-08-08T13:37:27.874Z,33.82
2022-08-08T13:40:27.215Z,33.60
2022-08-08T13:42:58.377Z,33.15
2022-08-08T13:45:27.093Z,33.09
2022-08-08T13:47:59.185Z,32.99
2022-08-08T13:50:36.532Z,32.80
2022-08-08T13:53:24.366Z,32.79
2022-08-08T13:56:02.033Z,33.05
2022-08-08T13:58:33.275Z,33.43
2022-08-08T14:01:13.726Z,33.61
2022-08-08T14:03:54.996Z,33.41
2022-08-08T14:06:32.913Z,33.12
2022-08-08T14:09:25.441Z,33.08
2022-08-08T14:11:51.687Z,33.14
2022-08-08T14:14:26.280Z,32.91
2022-08-08T14:16:57.288Z,32.74
2022-08-08T14:19:57.676Z,32.91
2022-08-08T14:22:24.337Z,32.93
2022-08-08T14:24:59.778Z,32.86
2022-08-08T14:27:34.044Z,32.80
2022-08-08T14:30:18.475Z,32.93
2022-08-08T14:32:52.844Z,33.14
2022-08-08T14:35:23.321Z,33.29
2022-08-08T14:38:00.347Z,33.08
2022-08-08T14:40:32.751Z,33.08
2022-08-08T14:43:01.819Z,33.20
2022-08-08T14:46:03.351Z,33.29
2022-08-08T14:48:41.841Z,33.27
2022-08-08T14:51:23.524Z,33.10
2022-08-08T14:53:55.193Z,33.17
2022-08-08T14:56:25.482Z,33.29
2022-08-08T14:58:54.805Z,33.08
2022-08-08T15:01:37.222Z,32.92
2022-08-08T15:04:10.493Z,32.83
2022-08-08T15:06:38.933Z,32.67
2022-08-08T15:09:07.813Z,32.65
2022-08-08T15:11:43.326Z,32.58
2022-08-08T15:14:15.101Z,32.66
2022-08-08T15:16:45.274Z,32.55
2022-08-08T15:19:15.600Z,32.68
2022-08-08T15:21:44.811Z,32.80
2022-08-08T15:24:16.193Z,32.80
2022-08-08T15:26:52.247Z,32.91
2022-08-08T15:29:22.631Z,32.97
2022-08-08T15:32:18.062Z,32.89
2022-08-08T15:34:42.553Z,32.94
2022-08-08T15:37:10.973Z,32.87
2022-08-08T15:39:41.428Z,32.88
2022-08-08T15:42:13.086Z,32.88
2022-08-08T15:44:43.101Z,32.86
2022-08-08T15:47:15.753Z,32.88
2022-08-08T15:49:48.926Z,32.89
2022-08-08T15:52:40.360Z,32.79
2022-08-08T15:55:11.549Z,32.64
2022-08-08T15:57:40.806Z,32.58
2022-08-08T16:00:27.238Z,32.54
2022-08-08T16:02:59.345Z,32.40
2022-08-08T16:05:35.884Z,32.49
2022-08-08T16:08:20.207Z,32.60
2022-08-08T16:13:03.838Z,32.50
2022-08-08T16:13:45.166Z,32.44
2022-08-08T16:16:17.882Z,32.36
2022-08-08T16:18:53.122Z,32.40
2022-08-08T16:21:29.002Z,32.30
2022-08-08T16:23:57.690Z,32.21
2022-08-08T16:26:33.942Z,31.82
2022-08-08T16:29:09.242Z,31.56
2022-08-08T16:31:40.923Z,31.69
2022-08-08T16:34:11.263Z,31.30
2022-08-08T16:36:49.498Z,31.16
2022-08-08T16:40:01.399Z,30.90
2022-08-08T16:42:18.334Z,30.25
2022-08-08T16:44:54.877Z,28.78
2022-08-08T16:47:39.971Z,27.79
2022-08-08T16:50:15.318Z,27.10
2022-08-08T16:55:02.587Z,25.59
2022-08-08T16:55:53.637Z,24.38
2022-08-08T16:58:25.591Z,24.01
2022-08-08T17:00:58.872Z,23.68
2022-08-08T17:03:58.342Z,23.69
2022-08-08T17:06:37.374Z,23.76
2022-08-08T17:09:06.029Z,24.18
2022-08-08T17:11:48.042Z,24.76
2022-08-08T17:14:18.723Z,25.30
2022-08-08T17:16:51.720Z,25.63
2022-08-08T17:19:26.415Z,26.13
2022-08-08T17:21:56.779Z,26.15
2022-08-08T17:24:29.888Z,26.15
2022-08-08T17:26:59.454Z,26.24
2022-08-08T17:29:27.803Z,26.42
2022-08-08T17:31:57.379Z,26.63
2022-08-08T17:34:53.569Z,26.78
2022-08-08T17:37:16.300Z,26.96
2022-08-08T17:40:10.946Z,27.04
2022-08-08T17:42:37.010Z,27.24
2022-08-08T17:45:06.716Z,27.41
2022-08-08T17:47:42.845Z,27.70
2022-08-08T17:50:18.938Z,27.88
2022-08-08T17:52:48.481Z,27.94
2022-08-08T17:56:03.942Z,28.07
2022-08-08T17:58:05.714Z,28.02
2022-08-08T18:00:41.341Z,28.01
2022-08-08T18:03:13.176Z,28.02
2022-08-08T18:05:48.719Z,27.87
2022-08-08T18:08:25.131Z,27.82
2022-08-08T18:11:08.391Z,27.93
2022-08-08T18:13:41.364Z,27.90
2022-08-08T18:16:10.311Z,28.11
2022-08-08T18:18:42.656Z,27.95
2022-08-08T18:21:24.863Z,27.82
2022-08-08T18:24:03.387Z,27.83
2022-08-08T18:26:31.566Z,27.83
2022-08-08T18:29:01.851Z,27.82
2022-08-08T18:31:30.151Z,27.78
2022-08-08T18:34:12.180Z,27.77
2022-08-08T18:36:47.793Z,27.79
2022-08-08T18:39:28.348Z,27.85
2022-08-08T18:41:59.940Z,27.71
2022-08-08T18:44:32.986Z,27.63
2022-08-08T18:47:05.112Z,27.59
2022-08-08T18:49:57.767Z,27.51
2022-08-08T18:52:23.352Z,27.39
2022-08-08T18:55:00.699Z,27.32
2022-08-08T18:57:41.631Z,27.25
2022-08-08T19:00:16.525Z,27.26
2022-08-08T19:02:56.188Z,27.18
2022-08-08T19:05:34.343Z,27.22
2022-08-08T19:08:10.348Z,27.32
2022-08-08T19:10:55.728Z,27.16
2022-08-08T19:13:25.223Z,27.10
2022-08-08T19:15:55.945Z,27.07
2022-08-08T19:18:32.522Z,27.05
2022-08-08T19:21:29.602Z,27.03
2022-08-08T19:23:59.664Z,27.04
2022-08-08T19:26:31.214Z,27.07
2022-08-08T19:29:00.171Z,27.08
2022-08-08T19:31:31.258Z,27.08
2022-08-08T19:34:35.491Z,27.08
2022-08-08T19:36:53.549Z,27.07
2022-08-08T19:39:23.786Z,27.03
2022-08-08T19:41:53.289Z,27.06
2022-08-08T19:44:43.223Z,26.99
2022-08-08T19:47:09.889Z,27.01
2022-08-08T19:49:43.469Z,26.98
2022-08-08T19:52:34.432Z,26.91
2022-08-08T19:55:05.089Z,26.88
2022-08-08T19:57:37.775Z,26.85
2022-08-08T20:00:11.546Z,26.82
2022-08-08T20:02:57.045Z,26.81
2022-08-08T20:06:15.137Z,26.79
2022-08-08T20:08:29.193Z,26.77
2022-08-08T20:11:00.050Z,26.75
2022-08-08T20:14:33.568Z,26.78
2022-08-08T20:16:19.621Z,26.77
2022-08-08T20:18:52.643Z,26.73
2022-08-08T20:21:25.387Z,26.70
2022-08-08T20:23:57.634Z,26.67
2022-08-08T20:26:33.275Z,26.65
2022-08-08T20:29:04.307Z,26.64
2022-08-08T20:32:02.919Z,26.55
2022-08-08T20:34:30.573Z,26.55
2022-08-08T20:37:00.932Z,26.48
2022-08-08T20:39:39.173Z,26.43
2022-08-08T20:42:20.412Z,26.36
2022-08-08T20:44:58.685Z,26.35
2022-08-08T20:47:26.911Z,26.36
2022-08-08T20:50:05.570Z,26.34
2022-08-08T20:52:33.758Z,26.30
2022-08-08T20:55:02.197Z,26.29
2022-08-08T20:57:47.741Z,26.22
2022-08-08T21:00:21.007Z,26.22
2022-08-08T21:02:52.825Z,26.16
2022-08-08T21:05:21.630Z,26.17
2022-08-08T21:08:07.806Z,26.12
2022-08-08T21:10:41.189Z,26.08
2022-08-08T21:13:09.978Z,25.99
2022-08-08T21:16:06.319Z,26.01
2022-08-08T21:18:28.078Z,25.96
2022-08-08T21:20:56.603Z,25.94
2022-08-08T21:23:58.570Z,25.87
2022-08-08T21:26:13.509Z,25.84
2022-08-08T21:28:55.834Z,25.71
2022-08-08T21:31:58.516Z,25.64
2022-08-08T21:34:18.971Z,25.56
2022-08-08T21:36:49.302Z,25.53
2022-08-08T21:39:17.903Z,25.50
2022-08-08T21:41:51.166Z,25.49
2022-08-08T21:44:21.893Z,25.45
2022-08-08T21:48:04.936Z,25.48
2022-08-08T21:49:39.553Z,25.47
2022-08-08T21:54:34.185Z,25.40
2022-08-08T21:55:04.202Z,25.35
2022-08-08T21:57:42.950Z,25.28
2022-08-08T22:00:26.003Z,25.22
2022-08-08T22:02:55.860Z,25.24
2022-08-08T22:05:23.998Z,25.22
2022-08-08T22:07:52.063Z,25.24
2022-08-08T22:10:31.953Z,25.22
2022-08-08T22:13:18.659Z,25.21
2022-08-08T22:15:59.565Z,25.18
2022-08-08T22:18:33.847Z,25.19
2022-08-08T22:21:10.757Z,25.28
2022-08-08T22:23:49.460Z,25.30
2022-08-08T22:26:28.754Z,25.30
2022-08-08T22:29:14.893Z,25.31
2022-08-08T22:31:58.666Z,25.35
2022-08-08T22:34:33.020Z,25.41
2022-08-08T22:37:14.879Z,25.36
2022-08-08T22:40:01.136Z,25.28
2022-08-08T22:42:34.319Z,25.25
2022-08-08T22:45:03.415Z,25.36
2022-08-08T22:47:38.401Z,25.31
2022-08-08T22:50:26.211Z,25.25
2022-08-08T22:53:22.477Z,25.18
2022-08-08T22:55:59.265Z,25.19
2022-08-08T22:58:31.159Z,25.18
2022-08-08T23:01:00.994Z,25.25
2022-08-08T23:03:52.936Z,25.23
2022-08-08T23:06:19.302Z,25.13
2022-08-08T23:08:55.611Z,25.06
2022-08-08T23:11:31.114Z,24.99
2022-08-08T23:14:17.487Z,24.89
2022-08-08T23:16:57.609Z,24.80
2022-08-08T23:19:31.034Z,24.70
2022-08-08T23:22:04.225Z,24.64
2022-08-08T23:24:36.122Z,24.62
2022-08-08T23:27:06.392Z,24.75
2022-08-08T23:29:34.558Z,24.69
2022-08-08T23:32:04.755Z,24.67
2022-08-08T23:34:34.263Z,24.64
2022-08-08T23:37:04.699Z,24.58
2022-08-08T23:39:42.114Z,24.59
2022-08-08T23:42:21.389Z,24.59
2022-08-08T23:44:50.019Z,24.49
2022-08-08T23:48:59.777Z,24.42
2022-08-08T23:50:29.817Z,24.29
2022-08-08T23:53:03.501Z,24.20
2022-08-08T23:55:33.723Z,24.13
2022-08-08T23:58:32.147Z,24.07
